sensor_id;sensor_type;location;lat;lon;timestamp;pressure;altitude;pressure_sealevel;temperature
74915;BMP280;63475;45.140;-75.616;2022-11-21T00:00:40;101149.41;;;-8.99
74915;BMP280;63475;45.140;-75.616;2022-11-21T00:01:41;101143.25;;;-8.98
74915;BMP280;63475;45.140;-75.616;2022-11-21T00:02:42;101121.81;;;-9.18
74915;BMP280;63475;45.140;-75.616;2022-11-21T00:03:43;101149.91;;;-9.02
74915;BMP280;63475;45.140;-75.616;2022-11-21T00:04:44;101164.47;;;-9.07
74915;BMP280;63475;45.140;-75.616;2022-11-21T00:05:47;101160.94;;;-9.01
74915;BMP280;63475;45.140;-75.616;2022-11-21T00:06:49;101161.47;;;-8.99
74915;BMP280;63475;45.140;-75.616;2022-11-21T00:07:52;101157.09;;;-9.04
74915;BMP280;63475;45.140;-75.616;2022-11-21T00:08:54;101166.81;;;-9.06
74915;BMP280;63475;45.140;-75.616;2022-11-21T00:09:55;101169.41;;;-9.01
74915;BMP280;63475;45.140;-75.616;2022-11-21T00:10:58;101123.72;;;-9.31
74915;BMP280;63475;45.140;-75.616;2022-11-21T00:11:59;101172.03;;;-8.96
74915;BMP280;63475;45.140;-75.616;2022-11-21T00:13:00;101174.34;;;-8.94
74915;BMP280;63475;45.140;-75.616;2022-11-21T00:14:01;101146.19;;;-9.16
74915;BMP280;63475;45.140;-75.616;2022-11-21T00:15:02;101177.69;;;-8.93
74915;BMP280;63475;45.140;-75.616;2022-11-21T00:16:09;101182.06;;;-8.94
74915;BMP280;63475;45.140;-75.616;2022-11-21T00:17:10;101177.34;;;-9.02
74915;BMP280;63475;45.140;-75.616;2022-11-21T00:18:12;101191.03;;;-8.91
74915;BMP280;63475;45.140;-75.616;2022-11-21T00:19:13;101192.06;;;-8.92
74915;BMP280;63475;45.140;-75.616;2022-11-21T00:20:14;101195.16;;;-8.90
74915;BMP280;63475;45.140;-75.616;2022-11-21T00:21:17;101194.91;;;-8.89
74915;BMP280;63475;45.140;-75.616;2022-11-21T00:22:18;101201.34;;;-8.86
74915;BMP280;63475;45.140;-75.616;2022-11-21T00:23:18;101199.28;;;-8.89
74915;BMP280;63475;45.140;-75.616;2022-11-21T00:24:19;101200.78;;;-8.93
74915;BMP280;63475;45.140;-75.616;2022-11-21T00:25:20;101201.31;;;-8.91
74915;BMP280;63475;45.140;-75.616;2022-11-21T00:26:22;101205.41;;;-8.90
74915;BMP280;63475;45.140;-75.616;2022-11-21T00:27:23;101200.22;;;-9.01
74915;BMP280;63475;45.140;-75.616;2022-11-21T00:28:23;101198.75;;;-8.91
74915;BMP280;63475;45.140;-75.616;2022-11-21T00:29:24;101165.41;;;-9.18
74915;BMP280;63475;45.140;-75.616;2022-11-21T00:30:26;101209.53;;;-8.89
74915;BMP280;63475;45.140;-75.616;2022-11-21T00:31:27;101209.28;;;-8.88
74915;BMP280;63475;45.140;-75.616;2022-11-21T00:32:28;101195.13;;;-8.96
74915;BMP280;63475;45.140;-75.616;2022-11-21T00:33:29;101161.09;;;-9.13
74915;BMP280;63475;45.140;-75.616;2022-11-21T00:34:30;101168.06;;;-9.08
74915;BMP280;63475;45.140;-75.616;2022-11-21T00:35:31;101213.75;;;-8.78
74915;BMP280;63475;45.140;-75.616;2022-11-21T00:36:32;101208.63;;;-8.78
74915;BMP280;63475;45.140;-75.616;2022-11-21T00:37:33;101214.28;;;-8.76
74915;BMP280;63475;45.140;-75.616;2022-11-21T00:38:35;101210.16;;;-8.77
74915;BMP280;63475;45.140;-75.616;2022-11-21T00:39:36;101220.69;;;-8.79
74915;BMP280;63475;45.140;-75.616;2022-11-21T00:40:37;101216.06;;;-8.77
74915;BMP280;63475;45.140;-75.616;2022-11-21T00:41:37;101218.59;;;-8.82
74915;BMP280;63475;45.140;-75.616;2022-11-21T00:42:38;101222.22;;;-8.78
74915;BMP280;63475;45.140;-75.616;2022-11-21T00:43:39;101231.66;;;-8.83
74915;BMP280;63475;45.140;-75.616;2022-11-21T00:44:40;101211.81;;;-8.93
74915;BMP280;63475;45.140;-75.616;2022-11-21T00:45:41;101230.41;;;-8.81
74915;BMP280;63475;45.140;-75.616;2022-11-21T00:46:42;101233.22;;;-8.82
74915;BMP280;63475;45.140;-75.616;2022-11-21T00:47:43;101231.94;;;-8.80
74915;BMP280;63475;45.140;-75.616;2022-11-21T00:48:43;101240.16;;;-8.83
74915;BMP280;63475;45.140;-75.616;2022-11-21T00:49:44;101238.53;;;-8.89
74915;BMP280;63475;45.140;-75.616;2022-11-21T00:50:48;101234.41;;;-8.95
74915;BMP280;63475;45.140;-75.616;2022-11-21T00:51:49;101230.50;;;-8.98
74915;BMP280;63475;45.140;-75.616;2022-11-21T00:52:56;101232.06;;;-8.97
74915;BMP280;63475;45.140;-75.616;2022-11-21T00:53:57;101236.66;;;-8.99
74915;BMP280;63475;45.140;-75.616;2022-11-21T00:54:58;101231.28;;;-8.97
74915;BMP280;63475;45.140;-75.616;2022-11-21T00:55:59;101231.06;;;-8.96
74915;BMP280;63475;45.140;-75.616;2022-11-21T00:57:00;101238.97;;;-8.97
74915;BMP280;63475;45.140;-75.616;2022-11-21T00:58:00;101246.69;;;-8.97
74915;BMP280;63475;45.140;-75.616;2022-11-21T00:59:01;101245.13;;;-8.98
74915;BMP280;63475;45.140;-75.616;2022-11-21T01:00:03;101254.63;;;-8.99
74915;BMP280;63475;45.140;-75.616;2022-11-21T01:01:08;101235.50;;;-9.13
74915;BMP280;63475;45.140;-75.616;2022-11-21T01:02:09;101256.16;;;-8.98
74915;BMP280;63475;45.140;-75.616;2022-11-21T01:03:10;101240.66;;;-9.13
74915;BMP280;63475;45.140;-75.616;2022-11-21T01:04:11;101257.69;;;-9.02
74915;BMP280;63475;45.140;-75.616;2022-11-21T01:05:12;101258.22;;;-9.00
74915;BMP280;63475;45.140;-75.616;2022-11-21T01:06:13;101264.59;;;-9.02
74915;BMP280;63475;45.140;-75.616;2022-11-21T01:07:14;101265.88;;;-9.05
74915;BMP280;63475;45.140;-75.616;2022-11-21T01:08:15;101272.53;;;-9.04
74915;BMP280;63475;45.140;-75.616;2022-11-21T01:09:22;101267.41;;;-9.04
74915;BMP280;63475;45.140;-75.616;2022-11-21T01:10:23;101263.25;;;-9.10
74915;BMP280;63475;45.140;-75.616;2022-11-21T01:11:24;101266.88;;;-9.06
74915;BMP280;63475;45.140;-75.616;2022-11-21T01:12:25;101265.34;;;-9.07
74915;BMP280;63475;45.140;-75.616;2022-11-21T01:13:25;101249.75;;;-9.22
74915;BMP280;63475;45.140;-75.616;2022-11-21T01:14:26;101277.84;;;-9.10
74915;BMP280;63475;45.140;-75.616;2022-11-21T01:15:27;101274.00;;;-9.13
74915;BMP280;63475;45.140;-75.616;2022-11-21T01:16:29;101281.38;;;-9.16
74915;BMP280;63475;45.140;-75.616;2022-11-21T01:17:31;101275.91;;;-9.25
74915;BMP280;63475;45.140;-75.616;2022-11-21T01:18:34;101262.69;;;-9.39
74915;BMP280;63475;45.140;-75.616;2022-11-21T01:19:35;101273.75;;;-9.33
74915;BMP280;63475;45.140;-75.616;2022-11-21T01:20:38;101279.97;;;-9.29
74915;BMP280;63475;45.140;-75.616;2022-11-21T01:21:39;101281.44;;;-9.33
74915;BMP280;63475;45.140;-75.616;2022-11-21T01:22:40;101277.03;;;-9.38
74915;BMP280;63475;45.140;-75.616;2022-11-21T01:23:41;101282.63;;;-9.41
74915;BMP280;63475;45.140;-75.616;2022-11-21T01:24:42;101284.41;;;-9.41
74915;BMP280;63475;45.140;-75.616;2022-11-21T01:25:43;101287.00;;;-9.41
74915;BMP280;63475;45.140;-75.616;2022-11-21T01:26:44;101287.72;;;-9.46
74915;BMP280;63475;45.140;-75.616;2022-11-21T01:27:45;101267.94;;;-9.67
74915;BMP280;63475;45.140;-75.616;2022-11-21T01:28:46;101234.50;;;-9.94
74915;BMP280;63475;45.140;-75.616;2022-11-21T01:29:47;101265.56;;;-9.74
74915;BMP280;63475;45.140;-75.616;2022-11-21T01:30:48;101292.84;;;-9.63
74915;BMP280;63475;45.140;-75.616;2022-11-21T01:31:49;101288.75;;;-9.64
74915;BMP280;63475;45.140;-75.616;2022-11-21T01:32:50;101296.91;;;-9.67
74915;BMP280;63475;45.140;-75.616;2022-11-21T01:33:52;101288.53;;;-9.62
74915;BMP280;63475;45.140;-75.616;2022-11-21T01:34:53;101235.97;;;-10.03
74915;BMP280;63475;45.140;-75.616;2022-11-21T01:35:54;101295.59;;;-9.69
74915;BMP280;63475;45.140;-75.616;2022-11-21T01:36:55;101299.19;;;-9.70
74915;BMP280;63475;45.140;-75.616;2022-11-21T01:37:56;101250.84;;;-10.00
74915;BMP280;63475;45.140;-75.616;2022-11-21T01:38:59;101299.19;;;-9.70
74915;BMP280;63475;45.140;-75.616;2022-11-21T01:40:00;101307.34;;;-9.73
74915;BMP280;63475;45.140;-75.616;2022-11-21T01:41:01;101308.09;;;-9.73
74915;BMP280;63475;45.140;-75.616;2022-11-21T01:42:02;101308.34;;;-9.74
74915;BMP280;63475;45.140;-75.616;2022-11-21T01:43:10;101268.78;;;-10.00
74915;BMP280;63475;45.140;-75.616;2022-11-21T01:46:49;101312.00;;;-9.87
74915;BMP280;63475;45.140;-75.616;2022-11-21T01:47:51;101286.72;;;-10.00
74915;BMP280;63475;45.140;-75.616;2022-11-21T01:49:10;101309.44;;;-9.87
74915;BMP280;63475;45.140;-75.616;2022-11-21T01:50:12;101307.13;;;-9.89
74915;BMP280;63475;45.140;-75.616;2022-11-21T01:51:29;101297.13;;;-10.07
74915;BMP280;63475;45.140;-75.616;2022-11-21T01:52:32;101306.19;;;-9.99
74915;BMP280;63475;45.140;-75.616;2022-11-21T01:53:35;101314.66;;;-9.99
74915;BMP280;63475;45.140;-75.616;2022-11-21T01:55:45;101311.22;;;-10.04
74915;BMP280;63475;45.140;-75.616;2022-11-21T01:56:52;101313.50;;;-10.08
74915;BMP280;63475;45.140;-75.616;2022-11-21T01:57:56;101318.56;;;-10.13
74915;BMP280;63475;45.140;-75.616;2022-11-21T01:59:00;101316.59;;;-10.06
74915;BMP280;63475;45.140;-75.616;2022-11-21T02:00:23;101302.78;;;-10.22
74915;BMP280;63475;45.140;-75.616;2022-11-21T02:01:26;101321.41;;;-10.10
74915;BMP280;63475;45.140;-75.616;2022-11-21T02:02:30;101317.22;;;-10.16
74915;BMP280;63475;45.140;-75.616;2022-11-21T02:03:36;101301.22;;;-10.23
74915;BMP280;63475;45.140;-75.616;2022-11-21T02:04:40;101317.53;;;-10.12
74915;BMP280;63475;45.140;-75.616;2022-11-21T02:05:42;101179.34;;;-11.03
74915;BMP280;63475;45.140;-75.616;2022-11-21T02:06:43;101321.56;;;-10.16
74915;BMP280;63475;45.140;-75.616;2022-11-21T02:07:46;101326.75;;;-10.28
74915;BMP280;63475;45.140;-75.616;2022-11-21T02:08:48;101327.22;;;-10.31
74915;BMP280;63475;45.140;-75.616;2022-11-21T02:09:55;101325.72;;;-10.44
74915;BMP280;63475;45.140;-75.616;2022-11-21T02:12:40;101331.31;;;-10.30
74915;BMP280;63475;45.140;-75.616;2022-11-21T02:13:42;101329.78;;;-10.31
74915;BMP280;63475;45.140;-75.616;2022-11-21T02:14:43;101328.53;;;-10.28
74915;BMP280;63475;45.140;-75.616;2022-11-21T02:15:44;101330.63;;;-10.25
74915;BMP280;63475;45.140;-75.616;2022-11-21T02:16:45;101326.34;;;-10.37
74915;BMP280;63475;45.140;-75.616;2022-11-21T02:17:46;101331.16;;;-10.40
74915;BMP280;63475;45.140;-75.616;2022-11-21T02:18:47;101336.91;;;-10.33
74915;BMP280;63475;45.140;-75.616;2022-11-21T02:19:55;101327.75;;;-10.29
74915;BMP280;63475;45.140;-75.616;2022-11-21T02:24:00;101332.94;;;-10.41
74915;BMP280;63475;45.140;-75.616;2022-11-21T02:25:07;101230.44;;;-11.08
74915;BMP280;63475;45.140;-75.616;2022-11-21T02:26:09;101334.78;;;-10.36
74915;BMP280;63475;45.140;-75.616;2022-11-21T02:27:11;101291.47;;;-10.71
74915;BMP280;63475;45.140;-75.616;2022-11-21T02:28:18;101343.41;;;-10.42
74915;BMP280;63475;45.140;-75.616;2022-11-21T02:29:19;101326.09;;;-10.52
74915;BMP280;63475;45.140;-75.616;2022-11-21T02:30:20;101322.09;;;-10.59
74915;BMP280;63475;45.140;-75.616;2022-11-21T02:31:22;101342.78;;;-10.49
74915;BMP280;63475;45.140;-75.616;2022-11-21T02:32:31;101338.66;;;-10.50
74915;BMP280;63475;45.140;-75.616;2022-11-21T02:33:32;101339.53;;;-10.45
74915;BMP280;63475;45.140;-75.616;2022-11-21T02:34:33;101342.84;;;-10.44
74915;BMP280;63475;45.140;-75.616;2022-11-21T02:35:34;101343.84;;;-10.45
74915;BMP280;63475;45.140;-75.616;2022-11-21T02:36:42;101345.22;;;-10.43
74915;BMP280;63475;45.140;-75.616;2022-11-21T02:37:46;101352.56;;;-10.46
74915;BMP280;63475;45.140;-75.616;2022-11-21T02:38:47;101348.13;;;-10.51
74915;BMP280;63475;45.140;-75.616;2022-11-21T02:39:48;101352.13;;;-10.43
74915;BMP280;63475;45.140;-75.616;2022-11-21T02:42:13;101347.75;;;-10.26
74915;BMP280;63475;45.140;-75.616;2022-11-21T02:43:17;101352.34;;;-10.28
74915;BMP280;63475;45.140;-75.616;2022-11-21T02:44:25;101353.44;;;-10.24
74915;BMP280;63475;45.140;-75.616;2022-11-21T02:45:39;101354.00;;;-10.22
74915;BMP280;63475;45.140;-75.616;2022-11-21T02:46:50;101276.78;;;-10.76
74915;BMP280;63475;45.140;-75.616;2022-11-21T02:47:53;101360.03;;;-10.28
74915;BMP280;63475;45.140;-75.616;2022-11-21T02:48:55;101359.72;;;-10.31
74915;BMP280;63475;45.140;-75.616;2022-11-21T02:51:07;101360.34;;;-10.41
74915;BMP280;63475;45.140;-75.616;2022-11-21T02:52:08;101346.66;;;-10.47
74915;BMP280;63475;45.140;-75.616;2022-11-21T02:53:12;101356.13;;;-10.47
74915;BMP280;63475;45.140;-75.616;2022-11-21T02:54:13;101299.88;;;-10.87
74915;BMP280;63475;45.140;-75.616;2022-11-21T02:55:14;101364.03;;;-10.49
74915;BMP280;63475;45.140;-75.616;2022-11-21T02:56:15;101354.25;;;-10.52
74915;BMP280;63475;45.140;-75.616;2022-11-21T02:57:16;101357.81;;;-10.53
74915;BMP280;63475;45.140;-75.616;2022-11-21T02:58:17;101342.63;;;-10.71
74915;BMP280;63475;45.140;-75.616;2022-11-21T02:59:19;101356.66;;;-10.74
74915;BMP280;63475;45.140;-75.616;2022-11-21T03:00:20;101304.13;;;-11.05
74915;BMP280;63475;45.140;-75.616;2022-11-21T03:01:24;101354.88;;;-10.73
74915;BMP280;63475;45.140;-75.616;2022-11-21T03:02:25;101235.88;;;-11.56
74915;BMP280;63475;45.140;-75.616;2022-11-21T03:03:25;101361.16;;;-10.81
74915;BMP280;63475;45.140;-75.616;2022-11-21T03:04:26;101359.34;;;-10.92
74915;BMP280;63475;45.140;-75.616;2022-11-21T03:05:28;101357.03;;;-10.94
74915;BMP280;63475;45.140;-75.616;2022-11-21T03:06:29;101368.03;;;-10.93
74915;BMP280;63475;45.140;-75.616;2022-11-21T03:07:30;101322.16;;;-11.23
74915;BMP280;63475;45.140;-75.616;2022-11-21T03:08:31;101365.22;;;-10.92
74915;BMP280;63475;45.140;-75.616;2022-11-21T03:09:32;101339.50;;;-11.13
74915;BMP280;63475;45.140;-75.616;2022-11-21T03:10:33;101372.38;;;-10.94
74915;BMP280;63475;45.140;-75.616;2022-11-21T03:11:58;101373.59;;;-10.96
74915;BMP280;63475;45.140;-75.616;2022-11-21T03:12:59;101371.03;;;-10.96
74915;BMP280;63475;45.140;-75.616;2022-11-21T03:14:02;101375.16;;;-10.95
74915;BMP280;63475;45.140;-75.616;2022-11-21T03:15:05;101330.63;;;-11.34
74915;BMP280;63475;45.140;-75.616;2022-11-21T03:16:07;101376.50;;;-11.04
74915;BMP280;63475;45.140;-75.616;2022-11-21T03:17:08;101355.97;;;-11.21
74915;BMP280;63475;45.140;-75.616;2022-11-21T03:18:08;101373.75;;;-11.14
74915;BMP280;63475;45.140;-75.616;2022-11-21T03:19:09;101376.44;;;-11.09
74915;BMP280;63475;45.140;-75.616;2022-11-21T03:20:10;101356.63;;;-11.26
74915;BMP280;63475;45.140;-75.616;2022-11-21T03:21:11;101387.75;;;-11.05
74915;BMP280;63475;45.140;-75.616;2022-11-21T03:22:13;101384.41;;;-11.06
74915;BMP280;63475;45.140;-75.616;2022-11-21T03:23:14;101372.88;;;-11.20
74915;BMP280;63475;45.140;-75.616;2022-11-21T03:24:15;101387.88;;;-11.12
74915;BMP280;63475;45.140;-75.616;2022-11-21T03:25:16;101384.53;;;-11.12
74915;BMP280;63475;45.140;-75.616;2022-11-21T03:26:17;101389.63;;;-11.12
74915;BMP280;63475;45.140;-75.616;2022-11-21T03:27:18;101356.41;;;-11.36
74915;BMP280;63475;45.140;-75.616;2022-11-21T03:28:19;101377.19;;;-11.21
74915;BMP280;63475;45.140;-75.616;2022-11-21T03:29:20;101376.84;;;-11.24
74915;BMP280;63475;45.140;-75.616;2022-11-21T03:30:22;101389.88;;;-11.26
74915;BMP280;63475;45.140;-75.616;2022-11-21T03:31:23;101324.50;;;-11.68
74915;BMP280;63475;45.140;-75.616;2022-11-21T03:32:24;101388.84;;;-11.25
74915;BMP280;63475;45.140;-75.616;2022-11-21T03:33:25;101388.75;;;-11.30
74915;BMP280;63475;45.140;-75.616;2022-11-21T03:34:26;101390.97;;;-11.33
74915;BMP280;63475;45.140;-75.616;2022-11-21T03:35:27;101392.09;;;-11.41
74915;BMP280;63475;45.140;-75.616;2022-11-21T03:36:28;101390.84;;;-11.38
74915;BMP280;63475;45.140;-75.616;2022-11-21T03:37:29;101388.53;;;-11.52
74915;BMP280;63475;45.140;-75.616;2022-11-21T03:38:29;101397.41;;;-11.54
74915;BMP280;63475;45.140;-75.616;2022-11-21T03:39:30;101385.75;;;-11.50
74915;BMP280;63475;45.140;-75.616;2022-11-21T03:40:31;101394.53;;;-11.46
74915;BMP280;63475;45.140;-75.616;2022-11-21T03:41:32;101299.00;;;-12.22
74915;BMP280;63475;45.140;-75.616;2022-11-21T03:42:33;101385.63;;;-11.55
74915;BMP280;63475;45.140;-75.616;2022-11-21T03:43:34;101390.16;;;-11.57
74915;BMP280;63475;45.140;-75.616;2022-11-21T03:44:35;101371.50;;;-11.69
74915;BMP280;63475;45.140;-75.616;2022-11-21T03:45:36;101399.00;;;-11.53
74915;BMP280;63475;45.140;-75.616;2022-11-21T03:46:38;101396.28;;;-11.58
74915;BMP280;63475;45.140;-75.616;2022-11-21T03:47:40;101396.94;;;-11.63
74915;BMP280;63475;45.140;-75.616;2022-11-21T03:48:41;101346.03;;;-11.88
74915;BMP280;63475;45.140;-75.616;2022-11-21T03:49:41;101395.94;;;-11.62
74915;BMP280;63475;45.140;-75.616;2022-11-21T03:50:43;101400.59;;;-11.70
74915;BMP280;63475;45.140;-75.616;2022-11-21T03:51:44;101389.38;;;-11.69
74915;BMP280;63475;45.140;-75.616;2022-11-21T03:52:45;101397.28;;;-11.59
74915;BMP280;63475;45.140;-75.616;2022-11-21T03:53:46;101399.41;;;-11.56
74915;BMP280;63475;45.140;-75.616;2022-11-21T03:54:46;101397.72;;;-11.62
74915;BMP280;63475;45.140;-75.616;2022-11-21T03:55:47;101400.28;;;-11.62
74915;BMP280;63475;45.140;-75.616;2022-11-21T03:56:48;101398.06;;;-11.59
74915;BMP280;63475;45.140;-75.616;2022-11-21T03:57:49;101399.41;;;-11.56
74915;BMP280;63475;45.140;-75.616;2022-11-21T03:58:50;101404.72;;;-11.58
74915;BMP280;63475;45.140;-75.616;2022-11-21T03:59:51;101404.41;;;-11.50
74915;BMP280;63475;45.140;-75.616;2022-11-21T04:00:52;101407.88;;;-11.44
74915;BMP280;63475;45.140;-75.616;2022-11-21T04:01:53;101403.75;;;-11.45
74915;BMP280;63475;45.140;-75.616;2022-11-21T04:02:54;101403.09;;;-11.40
74915;BMP280;63475;45.140;-75.616;2022-11-21T04:03:55;101368.94;;;-11.69
74915;BMP280;63475;45.140;-75.616;2022-11-21T04:04:55;101387.19;;;-11.54
74915;BMP280;63475;45.140;-75.616;2022-11-21T04:05:57;101400.75;;;-11.42
74915;BMP280;63475;45.140;-75.616;2022-11-21T04:06:58;101384.44;;;-11.53
74915;BMP280;63475;45.140;-75.616;2022-11-21T04:07:59;101401.44;;;-11.35
74915;BMP280;63475;45.140;-75.616;2022-11-21T04:09:00;101344.06;;;-11.74
74915;BMP280;63475;45.140;-75.616;2022-11-21T04:10:01;101400.22;;;-11.44
74915;BMP280;63475;45.140;-75.616;2022-11-21T04:11:02;101410.97;;;-11.42
74915;BMP280;63475;45.140;-75.616;2022-11-21T04:12:03;101366.06;;;-11.61
74915;BMP280;63475;45.140;-75.616;2022-11-21T04:13:04;101404.22;;;-11.36
74915;BMP280;63475;45.140;-75.616;2022-11-21T04:14:05;101405.53;;;-11.34
74915;BMP280;63475;45.140;-75.616;2022-11-21T04:15:06;101396.31;;;-11.35
74915;BMP280;63475;45.140;-75.616;2022-11-21T04:16:07;101358.72;;;-11.58
74915;BMP280;63475;45.140;-75.616;2022-11-21T04:17:08;101407.75;;;-11.26
74915;BMP280;63475;45.140;-75.616;2022-11-21T04:18:09;101383.41;;;-11.40
74915;BMP280;63475;45.140;-75.616;2022-11-21T04:19:10;101379.31;;;-11.41
74915;BMP280;63475;45.140;-75.616;2022-11-21T04:20:11;101404.75;;;-11.23
74915;BMP280;63475;45.140;-75.616;2022-11-21T04:21:12;101410.88;;;-11.12
74915;BMP280;63475;45.140;-75.616;2022-11-21T04:22:13;101410.44;;;-11.09
74915;BMP280;63475;45.140;-75.616;2022-11-21T04:23:14;101409.22;;;-11.06
74915;BMP280;63475;45.140;-75.616;2022-11-21T04:24:15;101384.88;;;-11.21
74915;BMP280;63475;45.140;-75.616;2022-11-21T04:25:16;101409.75;;;-11.04
74915;BMP280;63475;45.140;-75.616;2022-11-21T04:26:17;101402.75;;;-10.97
74915;BMP280;63475;45.140;-75.616;2022-11-21T04:27:18;101408.63;;;-10.97
74915;BMP280;63475;45.140;-75.616;2022-11-21T04:28:19;101402.84;;;-10.92
74915;BMP280;63475;45.140;-75.616;2022-11-21T04:29:20;101396.84;;;-10.98
74915;BMP280;63475;45.140;-75.616;2022-11-21T04:30:21;101421.19;;;-10.95
74915;BMP280;63475;45.140;-75.616;2022-11-21T04:31:22;101412.63;;;-10.89
74915;BMP280;63475;45.140;-75.616;2022-11-21T04:32:23;101419.22;;;-10.81
74915;BMP280;63475;45.140;-75.616;2022-11-21T04:33:24;101421.84;;;-10.76
74915;BMP280;63475;45.140;-75.616;2022-11-21T04:34:24;101375.06;;;-11.00
74915;BMP280;63475;45.140;-75.616;2022-11-21T04:35:25;101413.06;;;-10.69
74915;BMP280;63475;45.140;-75.616;2022-11-21T04:36:27;101363.84;;;-11.11
74915;BMP280;63475;45.140;-75.616;2022-11-21T04:37:28;101428.72;;;-10.65
74915;BMP280;63475;45.140;-75.616;2022-11-21T04:38:29;101410.59;;;-10.75
74915;BMP280;63475;45.140;-75.616;2022-11-21T04:39:29;101423.78;;;-10.55
74915;BMP280;63475;45.140;-75.616;2022-11-21T04:40:30;101434.81;;;-10.43
74915;BMP280;63475;45.140;-75.616;2022-11-21T04:41:31;101441.03;;;-10.39
74915;BMP280;63475;45.140;-75.616;2022-11-21T04:42:32;101427.81;;;-10.47
74915;BMP280;63475;45.140;-75.616;2022-11-21T04:43:33;101435.81;;;-10.44
74915;BMP280;63475;45.140;-75.616;2022-11-21T04:44:34;101432.75;;;-10.29
74915;BMP280;63475;45.140;-75.616;2022-11-21T04:45:35;101424.69;;;-10.21
74915;BMP280;63475;45.140;-75.616;2022-11-21T04:46:36;101392.28;;;-10.55
74915;BMP280;63475;45.140;-75.616;2022-11-21T04:47:41;101450.41;;;-10.16
74915;BMP280;63475;45.140;-75.616;2022-11-21T04:48:42;101457.06;;;-10.15
74915;BMP280;63475;45.140;-75.616;2022-11-21T04:49:43;101450.75;;;-10.12
74915;BMP280;63475;45.140;-75.616;2022-11-21T04:50:44;101453.91;;;-10.05
74915;BMP280;63475;45.140;-75.616;2022-11-21T04:51:45;101456.34;;;-9.98
74915;BMP280;63475;45.140;-75.616;2022-11-21T04:52:52;101449.91;;;-10.01
74915;BMP280;63475;45.140;-75.616;2022-11-21T04:53:54;101443.22;;;-10.02
74915;BMP280;63475;45.140;-75.616;2022-11-21T04:54:55;101452.28;;;-9.94
74915;BMP280;63475;45.140;-75.616;2022-11-21T04:55:55;101439.66;;;-10.01
74915;BMP280;63475;45.140;-75.616;2022-11-21T04:56:56;101454.50;;;-9.86
74915;BMP280;63475;45.140;-75.616;2022-11-21T04:57:58;101454.06;;;-9.83
74915;BMP280;63475;45.140;-75.616;2022-11-21T04:58:59;101439.59;;;-9.89
74915;BMP280;63475;45.140;-75.616;2022-11-21T05:00:00;101452.81;;;-9.81
74915;BMP280;63475;45.140;-75.616;2022-11-21T05:01:05;101448.47;;;-9.80
74915;BMP280;63475;45.140;-75.616;2022-11-21T05:02:07;101435.78;;;-9.87
74915;BMP280;63475;45.140;-75.616;2022-11-21T05:03:08;101454.69;;;-9.76
74915;BMP280;63475;45.140;-75.616;2022-11-21T05:04:09;101438.56;;;-9.88
74915;BMP280;63475;45.140;-75.616;2022-11-21T05:05:10;101453.28;;;-9.84
74915;BMP280;63475;45.140;-75.616;2022-11-21T05:06:11;101440.72;;;-9.97
74915;BMP280;63475;45.140;-75.616;2022-11-21T05:07:12;101445.41;;;-9.94
74915;BMP280;63475;45.140;-75.616;2022-11-21T05:08:35;101459.78;;;-9.93
74915;BMP280;63475;45.140;-75.616;2022-11-21T05:09:36;101453.53;;;-9.97
74915;BMP280;63475;45.140;-75.616;2022-11-21T05:10:37;101449.97;;;-9.96
74915;BMP280;63475;45.140;-75.616;2022-11-21T05:12:01;101455.88;;;-9.95
74915;BMP280;63475;45.140;-75.616;2022-11-21T05:13:21;101460.56;;;-9.92
74915;BMP280;63475;45.140;-75.616;2022-11-21T05:14:22;101459.00;;;-9.93
74915;BMP280;63475;45.140;-75.616;2022-11-21T05:15:26;101460.31;;;-9.91
74915;BMP280;63475;45.140;-75.616;2022-11-21T05:16:27;101407.22;;;-10.24
74915;BMP280;63475;45.140;-75.616;2022-11-21T05:17:28;101459.19;;;-9.83
74915;BMP280;63475;45.140;-75.616;2022-11-21T05:22:50;101457.19;;;-9.81
74915;BMP280;63475;45.140;-75.616;2022-11-21T05:23:51;101472.38;;;-9.74
74915;BMP280;63475;45.140;-75.616;2022-11-21T05:24:51;101416.78;;;-10.19
74915;BMP280;63475;45.140;-75.616;2022-11-21T05:25:52;101474.09;;;-9.80
74915;BMP280;63475;45.140;-75.616;2022-11-21T05:26:59;101423.69;;;-10.20
74915;BMP280;63475;45.140;-75.616;2022-11-21T05:28:00;101412.44;;;-10.19
74915;BMP280;63475;45.140;-75.616;2022-11-21T05:29:01;101461.34;;;-9.92
74915;BMP280;63475;45.140;-75.616;2022-11-21T05:30:02;101486.78;;;-9.85
74915;BMP280;63475;45.140;-75.616;2022-11-21T05:31:03;101487.56;;;-9.85
74915;BMP280;63475;45.140;-75.616;2022-11-21T05:32:04;101472.00;;;-9.83
74915;BMP280;63475;45.140;-75.616;2022-11-21T05:33:05;101464.75;;;-9.86
74915;BMP280;63475;45.140;-75.616;2022-11-21T05:34:07;101428.53;;;-10.06
74915;BMP280;63475;45.140;-75.616;2022-11-21T05:35:08;101471.00;;;-9.82
74915;BMP280;63475;45.140;-75.616;2022-11-21T05:36:09;101433.59;;;-10.12
74915;BMP280;63475;45.140;-75.616;2022-11-21T05:37:10;101470.88;;;-9.87
74915;BMP280;63475;45.140;-75.616;2022-11-21T05:38:11;101478.09;;;-9.84
74915;BMP280;63475;45.140;-75.616;2022-11-21T05:39:12;101472.97;;;-9.84
74915;BMP280;63475;45.140;-75.616;2022-11-21T05:40:14;101425.22;;;-10.19
74915;BMP280;63475;45.140;-75.616;2022-11-21T05:41:15;101481.66;;;-9.85
74915;BMP280;63475;45.140;-75.616;2022-11-21T05:42:16;101482.03;;;-9.82
74915;BMP280;63475;45.140;-75.616;2022-11-21T05:43:36;101475.75;;;-9.86
74915;BMP280;63475;45.140;-75.616;2022-11-21T05:44:46;101480.47;;;-9.83
74915;BMP280;63475;45.140;-75.616;2022-11-21T05:45:48;101486.59;;;-9.84
74915;BMP280;63475;45.140;-75.616;2022-11-21T05:46:58;101487.25;;;-9.88
74915;BMP280;63475;45.140;-75.616;2022-11-21T05:47:59;101497.03;;;-9.85
74915;BMP280;63475;45.140;-75.616;2022-11-21T05:49:00;101494.84;;;-9.82
74915;BMP280;63475;45.140;-75.616;2022-11-21T05:50:01;101480.88;;;-9.86
74915;BMP280;63475;45.140;-75.616;2022-11-21T05:51:05;101484.81;;;-9.83
74915;BMP280;63475;45.140;-75.616;2022-11-21T05:52:34;101484.91;;;-9.78
74915;BMP280;63475;45.140;-75.616;2022-11-21T05:53:35;101457.22;;;-9.93
74915;BMP280;63475;45.140;-75.616;2022-11-21T05:54:36;101473.78;;;-9.84
74915;BMP280;63475;45.140;-75.616;2022-11-21T05:55:37;101400.75;;;-10.26
74915;BMP280;63475;45.140;-75.616;2022-11-21T05:56:37;101477.06;;;-9.71